createdAt,value
2023-02-27T00:00:02.857Z,-88.00
2023-02-27T00:01:02.896Z,-88.00
2023-02-27T00:02:03.518Z,-88.00
2023-02-27T00:03:03.996Z,-88.00
2023-02-27T00:04:04.228Z,-87.00
2023-02-27T00:05:04.247Z,-88.00
2023-02-27T00:06:04.383Z,-89.00
2023-02-27T00:07:04.541Z,-87.00
2023-02-27T00:08:05.499Z,-88.00
2023-02-27T00:09:05.728Z,-89.00
2023-02-27T00:10:06.625Z,-88.00
2023-02-27T00:11:06.709Z,-87.00
2023-02-27T00:12:06.786Z,-88.00
2023-02-27T00:13:06.892Z,-88.00
2023-02-27T00:14:07.098Z,-87.00
2023-02-27T00:15:07.924Z,-86.00
2023-02-27T00:16:08.011Z,-88.00
2023-02-27T00:17:08.134Z,-87.00
2023-02-27T00:18:08.595Z,-88.00
2023-02-27T00:19:08.873Z,-88.00
2023-02-27T00:20:09.283Z,-88.00
2023-02-27T00:21:09.427Z,-88.00
2023-02-27T00:22:09.796Z,-88.00
2023-02-27T00:23:10.785Z,-88.00
2023-02-27T00:24:11.219Z,-87.00
2023-02-27T00:25:11.360Z,-88.00
2023-02-27T00:26:11.569Z,-87.00
2023-02-27T00:27:11.948Z,-88.00
2023-02-27T00:27:21.507Z,-87.00
2023-02-27T00:28:22.482Z,-87.00
2023-02-27T00:29:23.474Z,-87.00
2023-02-27T00:30:23.478Z,-87.00
2023-02-27T00:31:24.137Z,-87.00
2023-02-27T00:32:24.080Z,-87.00
2023-02-27T00:33:24.701Z,-87.00
2023-02-27T00:34:25.622Z,-87.00
2023-02-27T00:35:25.943Z,-87.00
2023-02-27T00:36:26.859Z,-87.00
2023-02-27T00:37:26.939Z,-87.00
2023-02-27T00:38:27.166Z,-88.00
2023-02-27T00:39:27.249Z,-88.00
2023-02-27T00:40:28.163Z,-88.00
2023-02-27T00:41:28.719Z,-87.00
2023-02-27T00:42:28.864Z,-88.00
2023-02-27T00:43:29.854Z,-87.00
2023-02-27T00:44:29.966Z,-87.00
2023-02-27T00:45:30.817Z,-87.00
2023-02-27T00:46:31.012Z,-87.00
2023-02-27T00:47:31.670Z,-87.00
2023-02-27T00:48:32.463Z,-87.00
2023-02-27T00:49:33.310Z,-87.00
2023-02-27T00:50:34.277Z,-89.00
2023-02-27T00:51:35.220Z,-88.00
2023-02-27T00:52:35.714Z,-89.00
2023-02-27T00:53:35.746Z,-88.00
2023-02-27T00:54:35.750Z,-86.00
2023-02-27T00:55:35.815Z,-88.00
2023-02-27T00:56:36.602Z,-88.00
2023-02-27T00:57:36.984Z,-88.00
2023-02-27T00:58:37.909Z,-87.00
2023-02-27T00:59:38.078Z,-88.00
2023-02-27T00:59:46.807Z,-88.00
2023-02-27T01:00:47.622Z,-88.00
2023-02-27T01:01:48.367Z,-88.00
2023-02-27T01:02:48.520Z,-88.00
2023-02-27T01:03:49.236Z,-88.00
2023-02-27T01:04:50.133Z,-88.00
2023-02-27T01:05:50.710Z,-88.00
2023-02-27T01:06:50.776Z,-88.00
2023-02-27T01:07:51.625Z,-88.00
2023-02-27T01:08:52.635Z,-87.00
2023-02-27T01:09:52.801Z,-87.00
2023-02-27T01:10:53.289Z,-88.00
2023-02-27T01:11:53.967Z,-87.00
2023-02-27T01:12:54.699Z,-88.00
2023-02-27T01:13:55.596Z,-88.00
2023-02-27T01:14:55.624Z,-89.00
2023-02-27T01:15:56.521Z,-88.00
2023-02-27T01:16:57.204Z,-88.00
2023-02-27T01:17:57.863Z,-88.00
2023-02-27T01:18:58.363Z,-88.00
2023-02-27T01:19:59.122Z,-88.00
2023-02-27T01:21:00.011Z,-88.00
2023-02-27T01:22:00.830Z,-88.00
2023-02-27T01:23:01.812Z,-88.00
2023-02-27T01:24:02.476Z,-88.00
2023-02-27T01:25:03.223Z,-88.00
2023-02-27T01:26:03.975Z,-88.00
2023-02-27T01:27:04.763Z,-88.00
2023-02-27T01:28:05.611Z,-88.00
2023-02-27T01:29:06.678Z,-88.00
2023-02-27T01:30:07.098Z,-88.00
2023-02-27T01:31:07.811Z,-89.00
2023-02-27T01:31:17.506Z,-88.00
2023-02-27T01:32:18.463Z,-88.00
2023-02-27T01:33:19.128Z,-88.00
2023-02-27T01:34:19.915Z,-89.00
2023-02-27T01:35:20.682Z,-87.00
2023-02-27T01:36:20.998Z,-88.00
2023-02-27T01:37:21.862Z,-88.00
2023-02-27T01:38:22.652Z,-88.00
2023-02-27T01:39:23.293Z,-88.00
2023-02-27T01:40:24.247Z,-89.00
2023-02-27T01:41:24.530Z,-87.00
2023-02-27T01:42:24.800Z,-88.00
2023-02-27T01:43:25.053Z,-88.00
2023-02-27T01:44:25.432Z,-88.00
2023-02-27T01:45:25.435Z,-87.00
2023-02-27T01:46:25.613Z,-89.00
2023-02-27T01:47:25.829Z,-89.00
2023-02-27T01:48:26.216Z,-89.00
2023-02-27T01:49:26.451Z,-88.00
2023-02-27T01:50:27.321Z,-89.00
2023-02-27T01:51:28.338Z,-89.00
2023-02-27T01:52:28.359Z,-89.00
2023-02-27T01:53:28.477Z,-88.00
2023-02-27T01:54:28.473Z,-88.00
2023-02-27T01:55:28.860Z,-88.00
2023-02-27T01:56:29.141Z,-89.00
2023-02-27T01:57:30.050Z,-89.00
2023-02-27T01:58:30.750Z,-89.00
2023-02-27T01:59:31.432Z,-89.00
2023-02-27T02:00:31.652Z,-89.00
2023-02-27T02:01:31.994Z,-88.00
2023-02-27T02:01:42.052Z,-88.00
2023-02-27T02:02:42.452Z,-89.00
2023-02-27T02:03:43.303Z,-89.00
2023-02-27T02:04:43.998Z,-90.00
2023-02-27T02:05:44.948Z,-88.00
2023-02-27T02:06:45.822Z,-89.00
2023-02-27T02:07:46.681Z,-86.00
2023-02-27T02:08:46.670Z,-88.00
2023-02-27T02:09:46.823Z,-89.00
2023-02-27T02:10:47.792Z,-88.00
2023-02-27T02:11:48.550Z,-87.00
2023-02-27T02:12:49.398Z,-89.00
2023-02-27T02:13:49.464Z,-88.00
2023-02-27T02:14:49.910Z,-88.00
2023-02-27T02:15:50.866Z,-88.00
2023-02-27T02:16:51.294Z,-88.00
2023-02-27T02:17:51.292Z,-89.00
2023-02-27T02:18:51.331Z,-88.00
2023-02-27T02:19:51.730Z,-88.00
2023-02-27T02:20:52.518Z,-88.00
2023-02-27T02:21:52.978Z,-89.00
2023-02-27T02:22:53.779Z,-87.00
2023-02-27T02:23:54.555Z,-88.00
2023-02-27T02:24:54.963Z,-87.00
2023-02-27T02:25:55.682Z,-88.00
2023-02-27T02:26:56.516Z,-88.00
2023-02-27T02:27:56.522Z,-89.00
2023-02-27T02:28:57.312Z,-88.00
2023-02-27T02:29:57.597Z,-88.00
2023-02-27T02:30:58.706Z,-88.00
2023-02-27T02:31:58.784Z,-87.00
2023-02-27T02:32:59.472Z,-88.00
2023-02-27T02:33:08.159Z,-86.00
2023-02-27T02:34:09.090Z,-88.00
2023-02-27T02:35:09.883Z,-89.00
2023-02-27T02:36:09.957Z,-89.00
2023-02-27T02:37:10.918Z,-89.00
2023-02-27T02:38:11.011Z,-89.00
2023-02-27T02:39:11.495Z,-88.00
2023-02-27T02:40:11.775Z,-88.00
2023-02-27T02:41:12.672Z,-89.00
2023-02-27T02:42:12.915Z,-89.00
2023-02-27T02:43:13.002Z,-89.00
2023-02-27T02:44:13.598Z,-88.00
2023-02-27T02:45:14.220Z,-88.00
2023-02-27T02:46:14.525Z,-88.00
2023-02-27T02:47:14.643Z,-88.00
2023-02-27T02:48:15.612Z,-89.00
2023-02-27T02:49:15.731Z,-88.00
2023-02-27T02:50:16.132Z,-89.00
2023-02-27T02:51:16.551Z,-88.00
2023-02-27T02:52:17.258Z,-88.00
2023-02-27T02:53:17.659Z,-89.00
2023-02-27T02:54:17.919Z,-89.00
2023-02-27T02:55:18.536Z,-88.00
2023-02-27T02:56:18.786Z,-88.00
2023-02-27T02:57:19.098Z,-89.00
2023-02-27T02:58:20.022Z,-88.00
2023-02-27T02:59:20.441Z,-89.00
2023-02-27T03:00:20.673Z,-88.00
2023-02-27T03:01:21.396Z,-89.00
2023-02-27T03:02:22.147Z,-88.00
2023-02-27T03:03:22.841Z,-89.00
2023-02-27T03:04:23.233Z,-88.00
2023-02-27T03:04:31.962Z,-87.00
2023-02-27T03:05:32.691Z,-89.00
2023-02-27T03:06:33.599Z,-89.00
2023-02-27T03:07:33.611Z,-88.00
2023-02-27T03:08:34.560Z,-87.00
2023-02-27T03:09:34.588Z,-88.00
2023-02-27T03:10:35.366Z,-88.00
2023-02-27T03:11:35.500Z,-90.00
2023-02-27T03:12:36.097Z,-87.00
2023-02-27T03:13:36.938Z,-88.00
2023-02-27T03:14:37.074Z,-89.00
2023-02-27T03:15:37.126Z,-89.00
2023-02-27T03:16:37.150Z,-88.00
2023-02-27T03:17:37.999Z,-88.00
2023-02-27T03:18:38.334Z,-89.00
2023-02-27T03:19:39.144Z,-89.00
2023-02-27T03:20:40.132Z,-89.00
2023-02-27T03:21:41.037Z,-88.00
2023-02-27T03:22:41.997Z,-89.00
2023-02-27T03:23:42.171Z,-89.00
2023-02-27T03:24:42.306Z,-89.00
2023-02-27T03:25:42.756Z,-89.00
2023-02-27T03:26:42.972Z,-88.00
2023-02-27T03:27:43.922Z,-88.00
2023-02-27T03:28:44.554Z,-88.00
2023-02-27T03:29:45.457Z,-89.00
2023-02-27T03:30:46.441Z,-87.00
2023-02-27T03:31:46.758Z,-88.00
2023-02-27T03:32:46.682Z,-89.00
2023-02-27T03:33:47.307Z,-89.00
2023-02-27T03:34:47.542Z,-89.00
2023-02-27T03:35:48.337Z,-88.00
2023-02-27T03:35:57.530Z,-88.00
2023-02-27T03:36:58.102Z,-88.00
2023-02-27T03:37:58.931Z,-89.00
2023-02-27T03:38:59.424Z,-89.00
2023-02-27T03:40:00.195Z,-89.00
2023-02-27T03:41:01.084Z,-88.00
2023-02-27T03:42:01.451Z,-89.00
2023-02-27T03:43:02.012Z,-88.00
2023-02-27T03:44:02.407Z,-89.00
2023-02-27T03:45:02.637Z,-89.00
2023-02-27T03:46:02.946Z,-88.00
2023-02-27T03:47:02.899Z,-89.00
2023-02-27T03:48:03.429Z,-87.00
2023-02-27T03:49:03.869Z,-88.00
2023-02-27T03:50:04.791Z,-88.00
2023-02-27T03:51:05.929Z,-88.00
2023-02-27T03:52:05.757Z,-89.00
2023-02-27T03:53:05.857Z,-89.00
2023-02-27T03:54:06.079Z,-89.00
2023-02-27T03:55:06.171Z,-89.00
2023-02-27T03:56:07.029Z,-88.00
2023-02-27T03:57:07.716Z,-88.00
2023-02-27T03:58:08.335Z,-88.00
2023-02-27T03:59:08.755Z,-89.00
2023-02-27T04:00:09.163Z,-89.00
2023-02-27T04:01:10.110Z,-89.00
2023-02-27T04:02:10.256Z,-89.00
2023-02-27T04:03:11.084Z,-89.00
2023-02-27T04:04:11.690Z,-88.00
2023-02-27T04:05:11.901Z,-90.00
2023-02-27T04:06:12.131Z,-89.00
2023-02-27T04:07:12.870Z,-89.00
2023-02-27T04:07:21.652Z,-88.00
2023-02-27T04:08:21.879Z,-89.00
2023-02-27T04:09:22.792Z,-88.00
2023-02-27T04:10:23.112Z,-87.00
2023-02-27T04:11:23.111Z,-89.00
2023-02-27T04:12:23.257Z,-89.00
2023-02-27T04:13:23.925Z,-88.00
2023-02-27T04:14:24.426Z,-89.00
2023-02-27T04:15:25.313Z,-88.00
2023-02-27T04:16:25.730Z,-88.00
2023-02-27T04:17:25.971Z,-89.00
2023-02-27T04:18:26.790Z,-88.00
2023-02-27T04:19:27.658Z,-88.00
2023-02-27T04:20:27.789Z,-88.00
2023-02-27T04:21:28.109Z,-87.00
2023-02-27T04:22:28.647Z,-89.00
2023-02-27T04:23:29.005Z,-89.00
2023-02-27T04:24:29.145Z,-89.00
2023-02-27T04:25:30.062Z,-87.00
2023-02-27T04:26:30.440Z,-88.00
2023-02-27T04:27:30.586Z,-88.00
2023-02-27T04:28:30.887Z,-88.00
2023-02-27T04:29:31.673Z,-89.00
2023-02-27T04:30:31.708Z,-89.00
2023-02-27T04:31:32.502Z,-88.00
2023-02-27T04:32:33.317Z,-88.00
2023-02-27T04:33:33.323Z,-89.00
2023-02-27T04:34:34.140Z,-89.00
2023-02-27T04:35:34.442Z,-89.00
2023-02-27T04:36:34.530Z,-89.00
2023-02-27T04:37:34.704Z,-87.00
2023-02-27T04:38:34.971Z,-89.00
2023-02-27T04:39:35.795Z,-90.00
2023-02-27T04:40:36.334Z,-88.00
2023-02-27T04:40:44.989Z,-88.00
2023-02-27T04:41:45.757Z,-88.00
2023-02-27T04:42:46.018Z,-88.00
2023-02-27T04:43:46.946Z,-87.00
2023-02-27T04:44:47.096Z,-88.00
2023-02-27T04:45:48.181Z,-89.00
2023-02-27T04:46:48.248Z,-87.00
2023-02-27T04:47:48.609Z,-88.00
2023-02-27T04:48:49.055Z,-89.00
2023-02-27T04:49:49.638Z,-89.00
2023-02-27T04:50:49.777Z,-89.00
2023-02-27T04:51:50.016Z,-88.00
2023-02-27T04:52:50.331Z,-88.00
2023-02-27T04:53:50.637Z,-87.00
2023-02-27T04:54:51.222Z,-86.00
2023-02-27T04:55:51.446Z,-88.00
2023-02-27T04:56:52.095Z,-87.00
2023-02-27T04:57:52.557Z,-88.00
2023-02-27T04:58:52.631Z,-87.00
2023-02-27T04:59:52.840Z,-88.00
2023-02-27T05:00:52.880Z,-87.00
2023-02-27T05:01:53.782Z,-88.00
2023-02-27T05:02:54.626Z,-85.00
2023-02-27T05:03:55.469Z,-87.00
2023-02-27T05:04:56.347Z,-88.00
2023-02-27T05:05:56.421Z,-88.00
2023-02-27T05:06:56.568Z,-88.00
2023-02-27T05:07:57.346Z,-87.00
2023-02-27T05:08:57.622Z,-87.00
2023-02-27T05:09:57.776Z,-88.00
2023-02-27T05:10:58.420Z,-88.00
2023-02-27T05:11:58.666Z,-88.00
2023-02-27T05:12:58.754Z,-88.00
2023-02-27T05:13:07.418Z,-87.00
2023-02-27T05:14:07.837Z,-87.00
2023-02-27T05:15:08.168Z,-87.00
2023-02-27T05:16:08.351Z,-87.00
2023-02-27T05:17:08.492Z,-87.00
2023-02-27T05:18:08.692Z,-88.00
2023-02-27T05:19:09.131Z,-88.00
2023-02-27T05:20:09.926Z,-88.00
2023-02-27T05:21:10.762Z,-88.00
2023-02-27T05:22:11.495Z,-87.00
2023-02-27T05:23:11.681Z,-87.00
2023-02-27T05:24:11.889Z,-87.00
2023-02-27T05:25:12.100Z,-88.00
2023-02-27T05:26:12.684Z,-87.00
2023-02-27T05:27:13.275Z,-88.00
2023-02-27T05:28:14.153Z,-88.00
2023-02-27T05:29:14.603Z,-86.00
2023-02-27T05:30:15.389Z,-87.00
2023-02-27T05:31:16.276Z,-88.00
2023-02-27T05:32:16.498Z,-88.00
2023-02-27T05:33:16.597Z,-88.00
2023-02-27T05:34:16.858Z,-88.00
2023-02-27T05:35:17.604Z,-89.00
2023-02-27T05:36:18.366Z,-88.00
2023-02-27T05:37:19.248Z,-87.00
2023-02-27T05:38:19.888Z,-85.00
2023-02-27T05:39:20.058Z,-89.00
2023-02-27T05:40:20.846Z,-89.00
2023-02-27T05:41:21.604Z,-87.00
2023-02-27T05:42:21.860Z,-88.00
2023-02-27T05:43:22.382Z,-88.00
2023-02-27T05:44:23.062Z,-86.00
2023-02-27T05:44:31.802Z,-88.00
2023-02-27T05:45:32.558Z,-88.00
2023-02-27T05:46:33.313Z,-89.00
2023-02-27T05:47:34.283Z,-89.00
2023-02-27T05:48:34.312Z,-89.00
2023-02-27T05:49:34.340Z,-88.00
2023-02-27T05:50:34.422Z,-87.00
2023-02-27T05:51:34.427Z,-86.00
2023-02-27T05:52:34.790Z,-87.00
2023-02-27T05:53:34.825Z,-87.00
2023-02-27T05:54:35.066Z,-87.00
2023-02-27T05:55:35.997Z,-87.00
2023-02-27T05:56:36.905Z,-86.00
2023-02-27T05:57:37.714Z,-87.00
2023-02-27T05:58:38.496Z,-88.00
2023-02-27T05:59:39.369Z,-87.00
2023-02-27T06:00:39.567Z,-88.00
2023-02-27T06:01:40.443Z,-87.00
2023-02-27T06:02:41.257Z,-86.00
2023-02-27T06:03:42.136Z,-89.00
2023-02-27T06:04:42.923Z,-86.00
2023-02-27T06:05:43.861Z,-88.00
2023-02-27T06:06:44.538Z,-87.00
2023-02-27T06:07:45.153Z,-86.00
2023-02-27T06:08:45.129Z,-87.00
2023-02-27T06:09:45.285Z,-87.00
2023-02-27T06:10:46.048Z,-88.00
2023-02-27T06:11:46.927Z,-87.00
2023-02-27T06:12:47.867Z,-87.00
2023-02-27T06:13:48.136Z,-87.00
2023-02-27T06:14:49.065Z,-87.00
2023-02-27T06:15:49.684Z,-87.00
2023-02-27T06:15:58.976Z,-86.00
2023-02-27T06:16:59.862Z,-86.00
2023-02-27T06:18:00.476Z,-87.00
2023-02-27T06:19:02.586Z,-87.00
2023-02-27T06:20:02.039Z,-87.00
2023-02-27T06:21:02.080Z,-88.00
2023-02-27T06:22:02.741Z,-87.00
2023-02-27T06:23:03.614Z,-88.00
2023-02-27T06:24:04.560Z,-87.00
2023-02-27T06:25:05.557Z,-86.00
2023-02-27T06:26:06.473Z,-87.00
2023-02-27T06:27:06.568Z,-87.00
2023-02-27T06:28:07.516Z,-87.00
2023-02-27T06:29:08.325Z,-87.00
2023-02-27T06:30:08.671Z,-88.00
2023-02-27T06:31:08.841Z,-86.00
2023-02-27T06:32:08.909Z,-87.00
2023-02-27T06:33:09.576Z,-87.00
2023-02-27T06:34:09.750Z,-87.00
2023-02-27T06:35:10.642Z,-87.00
2023-02-27T06:36:11.469Z,-87.00
2023-02-27T06:37:11.524Z,-87.00
2023-02-27T06:38:12.343Z,-86.00
2023-02-27T06:39:13.298Z,-87.00
2023-02-27T06:40:13.723Z,-87.00
2023-02-27T06:41:14.609Z,-88.00
2023-02-27T06:42:14.689Z,-85.00
2023-02-27T06:43:15.652Z,-87.00
2023-02-27T06:44:19.183Z,-89.00
2023-02-27T06:45:17.447Z,-86.00
2023-02-27T06:46:18.406Z,-89.00
2023-02-27T06:47:18.453Z,-88.00
2023-02-27T06:47:27.621Z,-86.00
2023-02-27T06:48:27.757Z,-88.00
2023-02-27T06:49:27.798Z,-88.00
2023-02-27T06:50:28.567Z,-87.00
2023-02-27T06:51:30.425Z,-87.00
2023-02-27T06:52:30.311Z,-86.00
2023-02-27T06:53:31.156Z,-88.00
2023-02-27T06:54:31.474Z,-88.00
2023-02-27T06:55:32.440Z,-87.00
2023-02-27T06:56:32.622Z,-90.00
2023-02-27T06:57:32.620Z,-87.00
2023-02-27T06:58:33.538Z,-87.00
2023-02-27T06:59:33.571Z,-87.00
2023-02-27T07:00:34.459Z,-86.00
2023-02-27T07:01:35.409Z,-87.00
2023-02-27T07:02:35.441Z,-87.00
2023-02-27T07:03:36.837Z,-87.00
2023-02-27T07:04:36.824Z,-87.00
2023-02-27T07:05:37.088Z,-86.00
2023-02-27T07:07:32.353Z,-87.00
2023-02-27T07:07:38.954Z,-87.00
2023-02-27T07:08:38.472Z,-88.00
2023-02-27T07:09:39.202Z,-88.00
2023-02-27T07:10:40.122Z,-88.00
2023-02-27T07:11:41.013Z,-88.00
2023-02-27T07:12:41.212Z,-87.00
2023-02-27T07:13:41.689Z,-85.00
2023-02-27T07:14:41.689Z,-87.00
2023-02-27T07:15:42.699Z,-86.00
2023-02-27T07:16:43.426Z,-88.00
2023-02-27T07:17:43.597Z,-88.00
2023-02-27T07:18:44.296Z,-85.00
2023-02-27T07:18:53.530Z,-86.00
2023-02-27T07:19:54.281Z,-87.00
2023-02-27T07:20:55.091Z,-86.00
2023-02-27T07:21:55.295Z,-87.00
2023-02-27T07:22:55.448Z,-88.00
2023-02-27T07:23:56.007Z,-86.00
2023-02-27T07:24:56.400Z,-86.00
2023-02-27T07:25:56.530Z,-86.00
2023-02-27T07:26:56.755Z,-87.00
2023-02-27T07:27:56.895Z,-88.00
2023-02-27T07:28:57.048Z,-90.00
2023-02-27T07:29:57.213Z,-91.00
2023-02-27T07:30:57.504Z,-90.00
2023-02-27T07:31:57.637Z,-91.00
2023-02-27T07:32:57.751Z,-89.00
2023-02-27T07:33:58.630Z,-90.00
2023-02-27T07:34:59.122Z,-89.00
2023-02-27T07:35:59.374Z,-90.00
2023-02-27T07:37:00.263Z,-89.00
2023-02-27T07:38:01.155Z,-89.00
2023-02-27T07:39:01.994Z,-90.00
2023-02-27T07:40:02.917Z,-89.00
2023-02-27T07:41:03.167Z,-89.00
2023-02-27T07:42:04.109Z,-89.00
2023-02-27T07:43:04.473Z,-90.00
2023-02-27T07:44:04.924Z,-89.00
2023-02-27T07:45:05.677Z,-88.00
2023-02-27T07:46:05.753Z,-90.00
2023-02-27T07:47:06.103Z,-90.00
2023-02-27T07:48:06.205Z,-89.00
2023-02-27T07:49:06.425Z,-87.00
2023-02-27T07:50:07.514Z,-87.00
2023-02-27T07:50:16.295Z,-86.00
2023-02-27T07:51:16.754Z,-87.00
2023-02-27T07:52:16.716Z,-87.00
2023-02-27T07:53:17.492Z,-88.00
2023-02-27T07:54:18.304Z,-85.00
2023-02-27T07:55:18.785Z,-85.00
2023-02-27T07:56:18.832Z,-86.00
2023-02-27T07:57:19.781Z,-86.00
2023-02-27T07:58:20.635Z,-85.00
2023-02-27T07:59:20.817Z,-86.00
2023-02-27T08:00:21.405Z,-86.00
2023-02-27T08:01:22.295Z,-86.00
2023-02-27T08:02:23.325Z,-86.00
2023-02-27T08:03:24.030Z,-86.00
2023-02-27T08:04:24.815Z,-86.00
2023-02-27T08:05:24.965Z,-86.00
2023-02-27T08:06:26.415Z,-87.00
2023-02-27T08:07:25.008Z,-87.00
2023-02-27T08:08:25.166Z,-86.00
2023-02-27T08:09:25.198Z,-87.00
2023-02-27T08:10:26.118Z,-86.00
2023-02-27T08:11:26.872Z,-87.00
2023-02-27T08:12:26.788Z,-87.00
2023-02-27T08:13:55.662Z,-86.00
2023-02-27T08:14:26.930Z,-86.00
2023-02-27T08:15:27.596Z,-86.00
2023-02-27T08:16:28.325Z,-85.00
2023-02-27T08:17:27.850Z,-86.00
2023-02-27T08:18:27.827Z,-87.00
2023-02-27T08:19:28.836Z,-86.00
2023-02-27T08:20:29.116Z,-87.00
2023-02-27T08:21:30.393Z,-85.00
2023-02-27T08:21:38.628Z,-86.00
2023-02-27T08:22:38.701Z,-85.00
2023-02-27T08:23:39.364Z,-87.00
2023-02-27T08:24:39.298Z,-87.00
2023-02-27T08:25:39.925Z,-87.00
2023-02-27T08:26:40.893Z,-85.00
2023-02-27T08:27:41.281Z,-85.00
2023-02-27T08:28:41.992Z,-84.00
2023-02-27T08:29:42.962Z,-84.00
2023-02-27T08:30:43.250Z,-86.00
2023-02-27T08:31:43.854Z,-85.00
2023-02-27T08:32:44.040Z,-85.00
2023-02-27T08:33:44.259Z,-86.00
2023-02-27T08:34:44.405Z,-85.00
2023-02-27T08:35:44.947Z,-86.00
2023-02-27T08:36:45.199Z,-85.00
2023-02-27T08:37:46.716Z,-85.00
2023-02-27T08:38:46.120Z,-85.00
2023-02-27T08:39:46.205Z,-85.00
2023-02-27T08:40:47.076Z,-85.00
2023-02-27T08:41:47.273Z,-85.00
2023-02-27T08:42:48.294Z,-87.00
2023-02-27T08:43:48.285Z,-85.00
2023-02-27T08:44:48.682Z,-86.00
2023-02-27T08:45:49.343Z,-86.00
2023-02-27T08:46:49.634Z,-85.00
2023-02-27T08:47:49.717Z,-85.00
2023-02-27T08:48:49.998Z,-86.00
2023-02-27T08:49:50.256Z,-85.00
2023-02-27T08:50:51.093Z,-86.00
2023-02-27T08:51:51.358Z,-85.00
2023-02-27T08:52:51.380Z,-85.00
2023-02-27T08:53:51.918Z,-85.00
2023-02-27T08:54:52.579Z,-86.00
2023-02-27T08:55:01.246Z,-85.00
2023-02-27T08:56:02.829Z,-85.00
2023-02-27T08:57:02.177Z,-85.00
2023-02-27T08:58:02.456Z,-85.00
2023-02-27T08:59:03.106Z,-85.00
2023-02-27T09:00:03.812Z,-84.00
2023-02-27T09:01:04.388Z,-87.00
2023-02-27T09:02:05.044Z,-86.00
2023-02-27T09:03:05.193Z,-84.00
2023-02-27T09:04:05.453Z,-86.00
2023-02-27T09:05:05.817Z,-87.00
2023-02-27T09:06:06.296Z,-85.00
2023-02-27T09:07:07.287Z,-86.00
2023-02-27T09:08:07.610Z,-84.00
2023-02-27T09:09:08.286Z,-85.00
2023-02-27T09:10:08.887Z,-85.00
2023-02-27T09:11:08.977Z,-85.00
2023-02-27T09:12:09.312Z,-86.00
2023-02-27T09:13:09.395Z,-86.00
2023-02-27T09:14:10.248Z,-86.00
2023-02-27T09:15:10.710Z,-86.00
2023-02-27T09:16:11.502Z,-86.00
2023-02-27T09:17:11.912Z,-84.00
2023-02-27T09:18:12.511Z,-85.00
2023-02-27T09:19:12.634Z,-85.00
2023-02-27T09:20:13.239Z,-85.00
2023-02-27T09:21:13.327Z,-86.00
2023-02-27T09:22:13.542Z,-85.00
2023-02-27T09:23:14.564Z,-84.00
2023-02-27T09:24:20.289Z,-84.00
2023-02-27T09:25:16.500Z,-85.00
2023-02-27T09:26:16.635Z,-84.00
2023-02-27T09:26:40.065Z,-85.00
2023-02-27T09:27:25.812Z,-85.00
2023-02-27T09:28:26.048Z,-86.00
2023-02-27T09:29:26.157Z,-84.00
2023-02-27T09:30:27.123Z,-83.00
2023-02-27T09:31:27.778Z,-84.00
2023-02-27T09:32:27.426Z,-85.00
2023-02-27T09:33:29.251Z,-84.00
2023-02-27T09:34:29.088Z,-85.00
2023-02-27T09:35:29.465Z,-83.00
2023-02-27T09:36:30.408Z,-84.00
2023-02-27T09:37:30.530Z,-85.00
2023-02-27T09:38:30.549Z,-85.00
2023-02-27T09:39:30.690Z,-83.00
2023-02-27T09:40:30.764Z,-84.00
2023-02-27T09:41:31.205Z,-84.00
2023-02-27T09:42:31.281Z,-84.00
2023-02-27T09:43:32.086Z,-83.00
2023-02-27T09:44:45.187Z,-85.00
2023-02-27T09:45:33.531Z,-84.00
2023-02-27T09:46:33.604Z,-84.00
2023-02-27T09:47:33.608Z,-84.00
2023-02-27T09:48:33.622Z,-84.00
2023-02-27T09:49:33.985Z,-84.00
2023-02-27T09:50:34.152Z,-83.00
2023-02-27T09:51:35.132Z,-83.00
2023-02-27T09:52:35.404Z,-82.00
2023-02-27T09:53:35.450Z,-85.00
2023-02-27T09:54:35.674Z,-85.00
2023-02-27T09:55:36.605Z,-85.00
2023-02-27T09:56:36.713Z,-84.00
2023-02-27T09:57:36.736Z,-85.00
2023-02-27T09:57:45.370Z,-85.00
2023-02-27T09:58:45.547Z,-84.00
2023-02-27T09:59:46.441Z,-84.00
2023-02-27T10:00:46.679Z,-84.00
2023-02-27T10:01:47.222Z,-84.00
2023-02-27T10:02:47.257Z,-84.00
2023-02-27T10:03:47.840Z,-83.00
2023-02-27T10:04:48.679Z,-82.00
2023-02-27T10:05:49.547Z,-83.00
2023-02-27T10:06:49.684Z,-83.00
2023-02-27T10:07:49.842Z,-83.00
2023-02-27T10:08:49.907Z,-84.00
2023-02-27T10:09:49.956Z,-85.00
2023-02-27T10:10:50.259Z,-85.00
2023-02-27T10:11:50.865Z,-85.00
2023-02-27T10:12:51.523Z,-85.00
2023-02-27T10:13:51.561Z,-84.00
2023-02-27T10:14:51.725Z,-83.00
2023-02-27T10:15:51.741Z,-85.00
2023-02-27T10:16:52.181Z,-85.00
2023-02-27T10:17:52.264Z,-83.00
2023-02-27T10:18:53.184Z,-85.00
2023-02-27T10:19:53.369Z,-85.00
2023-02-27T10:20:54.379Z,-84.00
2023-02-27T10:21:55.144Z,-84.00
2023-02-27T10:22:55.251Z,-85.00
2023-02-27T10:23:56.233Z,-84.00
2023-02-27T10:24:57.029Z,-84.00
2023-02-27T10:25:57.909Z,-83.00
2023-02-27T10:26:58.226Z,-84.00
2023-02-27T10:27:59.149Z,-85.00
2023-02-27T10:28:59.276Z,-86.00
2023-02-27T10:29:07.930Z,-83.00
2023-02-27T10:30:09.644Z,-82.00
2023-02-27T10:31:08.546Z,-84.00
2023-02-27T10:32:08.790Z,-84.00
2023-02-27T10:33:09.015Z,-83.00
2023-02-27T10:34:09.293Z,-84.00
2023-02-27T10:35:09.735Z,-85.00
2023-02-27T10:36:12.458Z,-82.00
2023-02-27T10:37:10.802Z,-83.00
2023-02-27T10:38:11.182Z,-83.00
2023-02-27T10:39:11.677Z,-84.00
2023-02-27T10:40:12.595Z,-84.00
2023-02-27T10:41:12.775Z,-84.00
2023-02-27T10:42:12.781Z,-84.00
2023-02-27T10:43:13.327Z,-84.00
2023-02-27T10:44:13.289Z,-85.00
2023-02-27T10:45:13.400Z,-86.00
2023-02-27T10:46:13.506Z,-85.00
2023-02-27T10:47:13.577Z,-84.00
2023-02-27T10:48:13.844Z,-85.00
2023-02-27T10:49:13.903Z,-85.00
2023-02-27T10:50:14.188Z,-85.00
2023-02-27T10:51:14.794Z,-85.00
2023-02-27T10:52:15.150Z,-85.00
2023-02-27T10:53:15.338Z,-85.00
2023-02-27T10:54:15.775Z,-86.00
2023-02-27T10:55:16.038Z,-85.00
2023-02-27T10:56:16.073Z,-85.00
2023-02-27T10:57:17.068Z,-84.00
2023-02-27T10:58:17.821Z,-84.00
2023-02-27T10:59:18.148Z,-84.00
2023-02-27T11:00:18.195Z,-85.00
2023-02-27T11:01:18.995Z,-85.00
2023-02-27T11:01:29.176Z,-85.00
2023-02-27T11:02:28.898Z,-86.00
2023-02-27T11:03:28.976Z,-85.00
2023-02-27T11:04:29.231Z,-85.00
2023-02-27T11:05:29.591Z,-85.00
2023-02-27T11:06:29.988Z,-83.00
2023-02-27T11:07:30.423Z,-85.00
2023-02-27T11:08:30.888Z,-84.00
2023-02-27T11:09:30.962Z,-83.00
2023-02-27T11:10:32.026Z,-86.00
2023-02-27T11:11:32.373Z,-86.00
2023-02-27T11:12:32.420Z,-83.00
2023-02-27T11:13:32.641Z,-85.00
2023-02-27T11:14:33.439Z,-83.00
2023-02-27T11:15:34.180Z,-84.00
2023-02-27T11:16:34.430Z,-84.00
2023-02-27T11:17:34.832Z,-83.00
2023-02-27T11:18:35.373Z,-88.00
2023-02-27T11:19:35.782Z,-85.00
2023-02-27T11:20:36.339Z,-84.00
2023-02-27T11:21:37.017Z,-85.00
2023-02-27T11:22:37.675Z,-85.00
2023-02-27T11:23:37.932Z,-84.00
2023-02-27T11:24:38.332Z,-85.00
2023-02-27T11:25:38.363Z,-85.00
2023-02-27T11:26:38.534Z,-85.00
2023-02-27T11:27:39.110Z,-85.00
2023-02-27T11:28:39.146Z,-85.00
2023-02-27T11:29:39.335Z,-87.00
2023-02-27T11:30:39.459Z,-86.00
2023-02-27T11:31:40.446Z,-86.00
2023-02-27T11:32:40.750Z,-85.00
2023-02-27T11:32:49.495Z,-87.00
2023-02-27T11:33:50.123Z,-87.00
2023-02-27T11:34:50.134Z,-87.00
2023-02-27T11:35:50.515Z,-85.00
2023-02-27T11:36:50.693Z,-87.00
2023-02-27T11:37:50.808Z,-86.00
2023-02-27T11:38:50.938Z,-87.00
2023-02-27T11:39:51.060Z,-85.00
2023-02-27T11:40:51.384Z,-85.00
2023-02-27T11:41:51.521Z,-84.00
2023-02-27T11:42:51.775Z,-84.00
2023-02-27T11:43:52.620Z,-84.00
2023-02-27T11:44:53.361Z,-85.00
2023-02-27T11:46:13.272Z,-85.00
2023-02-27T11:46:53.964Z,-85.00
2023-02-27T11:47:56.962Z,-84.00
2023-02-27T11:48:54.270Z,-85.00
2023-02-27T11:49:54.968Z,-84.00
2023-02-27T11:50:55.253Z,-85.00
2023-02-27T11:51:56.003Z,-84.00
2023-02-27T11:52:56.087Z,-84.00
2023-02-27T11:53:57.018Z,-85.00
2023-02-27T11:54:57.038Z,-84.00
2023-02-27T11:55:57.897Z,-84.00
2023-02-27T11:56:58.795Z,-85.00
2023-02-27T11:57:58.860Z,-84.00
2023-02-27T11:58:59.637Z,-85.00
2023-02-27T12:00:00.601Z,-85.00
2023-02-27T12:01:01.059Z,-85.00
2023-02-27T12:02:01.399Z,-84.00
2023-02-27T12:03:01.973Z,-84.00
2023-02-27T12:04:02.434Z,-84.00
2023-02-27T12:04:11.636Z,-85.00
2023-02-27T12:05:12.288Z,-84.00
2023-02-27T12:06:12.417Z,-84.00
2023-02-27T12:07:13.082Z,-83.00
2023-02-27T12:08:13.921Z,-83.00
2023-02-27T12:09:14.810Z,-82.00
2023-02-27T12:10:15.272Z,-84.00
2023-02-27T12:11:15.634Z,-83.00
2023-02-27T12:12:15.882Z,-83.00
2023-02-27T12:13:16.212Z,-82.00
2023-02-27T12:14:16.381Z,-83.00